createdAt,value
2022-12-18T00:00:59.855Z,49.46
2022-12-18T00:01:44.956Z,49.63
2022-12-18T00:02:24.894Z,48.36
2022-12-18T00:03:11.947Z,49.56
2022-12-18T00:04:07.953Z,50.01
2022-12-18T00:05:01.847Z,50.81
2022-12-18T00:06:05.140Z,52.89
2022-12-18T00:06:58.839Z,50.53
2022-12-18T00:07:52.836Z,50.79
2022-12-18T00:08:33.886Z,48.46
2022-12-18T00:09:13.919Z,47.58
2022-12-18T00:09:54.870Z,46.20
2022-12-18T00:10:38.929Z,44.91
2022-12-18T00:11:25.861Z,47.05
2022-12-18T00:12:56.846Z,48.92
2022-12-18T00:13:44.895Z,48.76
2022-12-18T00:14:38.863Z,50.69
2022-12-18T00:15:35.828Z,50.34
2022-12-18T00:16:35.922Z,50.22
2022-12-18T00:17:29.875Z,49.99
2022-12-18T00:18:24.884Z,50.46
2022-12-18T00:19:05.850Z,49.86
2022-12-18T00:19:45.932Z,48.71
2022-12-18T00:20:32.878Z,51.56
2022-12-18T00:21:15.991Z,51.66
2022-12-18T00:21:55.823Z,52.08
2022-12-18T00:22:35.909Z,53.79
2022-12-18T00:23:16.832Z,53.60
2022-12-18T00:23:58.912Z,53.29
2022-12-18T00:24:39.904Z,53.91
2022-12-18T00:25:19.891Z,52.45
2022-12-18T00:26:00.829Z,50.16
2022-12-18T00:26:42.923Z,52.49
2022-12-18T00:27:23.830Z,52.71
2022-12-18T00:28:03.951Z,54.14
2022-12-18T00:28:46.839Z,55.33
2022-12-18T00:29:26.966Z,55.95
2022-12-18T00:30:06.882Z,56.63
2022-12-18T00:30:47.993Z,56.88
2022-12-18T00:31:34.006Z,55.90
2022-12-18T00:32:15.316Z,56.92
2022-12-18T00:32:55.841Z,57.74
2022-12-18T00:33:36.052Z,52.42
2022-12-18T00:34:20.804Z,50.01
2022-12-18T00:35:00.854Z,51.50
2022-12-18T00:35:40.840Z,51.80
2022-12-18T00:36:28.880Z,50.16
2022-12-18T00:37:09.842Z,50.17
2022-12-18T00:37:49.914Z,50.35
2022-12-18T00:38:29.795Z,50.51
2022-12-18T00:39:12.132Z,50.61
2022-12-18T00:39:51.804Z,48.44
2022-12-18T00:40:31.845Z,48.00
2022-12-18T00:41:12.822Z,49.71
2022-12-18T00:42:11.681Z,50.80
2022-12-18T00:43:04.813Z,49.17
2022-12-18T00:43:45.876Z,49.84
2022-12-18T00:44:26.816Z,52.08
2022-12-18T00:45:12.350Z,53.31
2022-12-18T00:45:53.867Z,54.42
2022-12-18T00:46:33.832Z,54.74
2022-12-18T00:47:07.879Z,57.78
2022-12-18T00:47:54.792Z,59.30
2022-12-18T00:48:28.881Z,58.99
2022-12-18T00:49:16.850Z,59.31
2022-12-18T00:49:50.903Z,56.58
2022-12-18T00:50:37.795Z,56.03
2022-12-18T00:51:12.132Z,56.99
2022-12-18T00:51:58.848Z,58.64
2022-12-18T00:52:32.833Z,57.49
2022-12-18T00:53:19.787Z,55.84
2022-12-18T00:53:53.860Z,54.65
2022-12-18T00:54:40.800Z,57.03
2022-12-18T00:55:14.874Z,60.17
2022-12-18T00:56:01.815Z,58.84
2022-12-18T00:56:37.376Z,59.28
2022-12-18T00:57:18.832Z,61.06
2022-12-18T00:57:59.887Z,60.31
2022-12-18T00:58:42.801Z,61.86
2022-12-18T00:59:25.859Z,63.04
2022-12-18T01:00:05.805Z,59.84
2022-12-18T01:00:45.941Z,59.83
2022-12-18T01:01:26.873Z,60.14
2022-12-18T01:02:06.948Z,59.13
2022-12-18T01:02:47.978Z,60.40
2022-12-18T01:03:27.845Z,61.96
2022-12-18T01:04:10.839Z,61.46
2022-12-18T01:04:51.201Z,61.66
2022-12-18T01:05:30.789Z,60.55
2022-12-18T01:06:15.874Z,61.28
2022-12-18T01:06:56.815Z,60.25
2022-12-18T01:07:36.837Z,58.88
2022-12-18T01:08:17.808Z,62.28
2022-12-18T01:08:58.935Z,60.94
2022-12-18T01:09:39.791Z,60.33
2022-12-18T01:10:20.841Z,62.44
2022-12-18T01:11:00.765Z,61.53
2022-12-18T01:11:40.822Z,60.50
2022-12-18T01:12:20.796Z,60.10
2022-12-18T01:13:00.852Z,60.75
2022-12-18T01:13:41.967Z,61.13
2022-12-18T01:14:22.863Z,61.44
2022-12-18T01:15:02.794Z,60.74
2022-12-18T01:15:42.855Z,58.72
2022-12-18T01:16:24.820Z,58.59
2022-12-18T01:17:04.931Z,59.67
2022-12-18T01:17:45.771Z,60.00
2022-12-18T01:18:25.838Z,60.85
2022-12-18T01:19:05.798Z,61.03
2022-12-18T01:19:46.863Z,58.67
2022-12-18T01:20:27.790Z,59.20
2022-12-18T01:21:07.842Z,58.54
2022-12-18T01:21:47.802Z,58.55
2022-12-18T01:22:27.822Z,58.55
2022-12-18T01:23:08.803Z,61.09
2022-12-18T01:23:48.864Z,60.50
2022-12-18T01:24:28.800Z,57.72
2022-12-18T01:25:09.814Z,58.01
2022-12-18T01:25:49.760Z,56.92
2022-12-18T01:26:30.855Z,58.55
2022-12-18T01:27:10.730Z,60.39
2022-12-18T01:27:50.979Z,58.74
2022-12-18T01:28:37.756Z,60.04
2022-12-18T01:29:11.890Z,59.92
2022-12-18T01:29:51.770Z,59.69
2022-12-18T01:30:31.804Z,58.71
2022-12-18T01:31:26.792Z,58.09
2022-12-18T01:32:07.824Z,59.26
2022-12-18T01:32:47.744Z,61.66
2022-12-18T01:33:27.780Z,58.92
2022-12-18T01:34:09.756Z,59.16
2022-12-18T01:34:49.772Z,59.80
2022-12-18T01:35:30.774Z,57.45
2022-12-18T01:36:10.856Z,55.85
2022-12-18T01:36:51.756Z,52.00
2022-12-18T01:37:31.988Z,52.44
2022-12-18T01:38:12.737Z,53.40
2022-12-18T01:38:54.177Z,53.46
2022-12-18T01:39:34.751Z,55.71
2022-12-18T01:40:15.841Z,54.04
2022-12-18T01:40:55.779Z,53.64
2022-12-18T01:41:57.463Z,56.59
2022-12-18T01:42:37.740Z,57.95
2022-12-18T01:43:17.811Z,56.95
2022-12-18T01:44:04.746Z,57.46
2022-12-18T01:45:10.814Z,57.56
2022-12-18T01:45:51.812Z,59.54
2022-12-18T01:46:33.760Z,55.19
2022-12-18T01:47:07.784Z,52.61
2022-12-18T01:48:14.740Z,53.15
2022-12-18T01:48:48.843Z,53.97
2022-12-18T01:49:35.756Z,52.92
2022-12-18T01:50:29.787Z,55.21
2022-12-18T01:51:17.772Z,54.88
2022-12-18T01:51:58.772Z,54.53
2022-12-18T01:52:53.710Z,54.54
2022-12-18T01:53:47.740Z,53.39
2022-12-18T01:54:42.738Z,53.05
2022-12-18T01:55:40.746Z,53.31
2022-12-18T01:56:35.736Z,55.10
2022-12-18T01:57:22.767Z,56.08
2022-12-18T01:57:59.779Z,58.67
2022-12-18T01:59:07.797Z,56.24
2022-12-18T01:59:42.815Z,56.21
2022-12-18T02:00:30.753Z,55.72
2022-12-18T02:01:04.849Z,55.60
2022-12-18T02:01:51.876Z,55.88
2022-12-18T02:02:34.850Z,55.67
2022-12-18T02:03:29.792Z,55.61
2022-12-18T02:04:46.327Z,56.00
2022-12-18T02:05:57.707Z,54.28
2022-12-18T02:06:54.723Z,52.69
2022-12-18T02:08:09.752Z,56.00
2022-12-18T02:09:29.715Z,56.55
2022-12-18T02:10:47.711Z,55.56
2022-12-18T02:12:04.698Z,57.67
2022-12-18T02:13:07.749Z,54.41
2022-12-18T02:14:14.708Z,56.34
2022-12-18T02:15:33.819Z,55.30
2022-12-18T02:16:43.804Z,53.39
2022-12-18T02:17:30.749Z,54.24
2022-12-18T02:18:19.723Z,54.56
2022-12-18T02:19:06.911Z,53.51
2022-12-18T02:20:07.734Z,55.17
2022-12-18T02:20:56.862Z,57.42
2022-12-18T02:21:45.707Z,56.01
2022-12-18T02:22:51.825Z,54.88
2022-12-18T02:24:08.734Z,53.72
2022-12-18T02:25:20.748Z,55.33
2022-12-18T02:26:08.726Z,57.74
2022-12-18T02:26:56.741Z,57.84
2022-12-18T02:27:38.677Z,57.17
2022-12-18T02:28:21.819Z,56.44
2022-12-18T02:29:08.760Z,58.61
2022-12-18T02:30:03.763Z,55.96
2022-12-18T02:30:45.729Z,54.72
2022-12-18T02:31:32.766Z,54.90
2022-12-18T02:32:18.663Z,56.41
2022-12-18T02:33:00.726Z,55.28
2022-12-18T02:33:42.023Z,53.44
2022-12-18T02:34:23.714Z,52.49
2022-12-18T02:34:58.742Z,53.53
2022-12-18T02:35:46.670Z,56.83
2022-12-18T02:36:21.719Z,55.72
2022-12-18T02:37:11.659Z,52.85
2022-12-18T02:37:46.703Z,51.06
2022-12-18T02:38:33.646Z,51.41
2022-12-18T02:39:09.710Z,52.40
2022-12-18T02:39:52.712Z,56.55
2022-12-18T02:40:34.711Z,55.55
2022-12-18T02:41:15.659Z,51.74
2022-12-18T02:41:55.721Z,52.91
2022-12-18T02:42:35.653Z,54.01
2022-12-18T02:43:30.652Z,55.10
2022-12-18T02:44:27.653Z,56.60
2022-12-18T02:45:15.717Z,55.41
2022-12-18T02:46:00.784Z,56.74
2022-12-18T02:46:54.662Z,57.19
2022-12-18T02:47:34.853Z,54.74
2022-12-18T02:48:21.657Z,56.40
2022-12-18T02:48:55.697Z,56.90
2022-12-18T02:50:15.670Z,57.58
2022-12-18T02:51:20.708Z,58.66
2022-12-18T02:52:18.839Z,58.39
2022-12-18T02:53:12.714Z,58.09
2022-12-18T02:54:08.664Z,58.39
2022-12-18T02:55:22.715Z,59.71
2022-12-18T02:56:34.643Z,61.11
2022-12-18T02:57:55.633Z,64.54
2022-12-18T02:59:21.655Z,65.14
2022-12-18T03:00:29.681Z,61.86
2022-12-18T03:01:40.797Z,63.15
2022-12-18T03:02:49.762Z,65.56
2022-12-18T03:03:55.634Z,66.81
2022-12-18T03:05:04.661Z,65.46
2022-12-18T03:06:17.671Z,63.06
2022-12-18T03:06:59.692Z,62.96
2022-12-18T03:07:59.649Z,66.70
2022-12-18T03:08:36.758Z,70.19
2022-12-18T03:09:31.614Z,67.81
2022-12-18T03:10:06.679Z,69.74
2022-12-18T03:11:01.609Z,67.89
2022-12-18T03:12:05.664Z,67.85
2022-12-18T03:13:06.638Z,68.21
2022-12-18T03:14:08.615Z,68.76
2022-12-18T03:15:12.130Z,67.46
2022-12-18T03:16:10.632Z,63.63
2022-12-18T03:17:08.644Z,61.03
2022-12-18T03:18:17.672Z,59.17
2022-12-18T03:19:18.719Z,62.16
2022-12-18T03:20:19.624Z,62.76
2022-12-18T03:21:18.619Z,61.88
2022-12-18T03:22:16.845Z,59.91
2022-12-18T03:23:21.476Z,60.76
2022-12-18T03:24:21.606Z,61.95
2022-12-18T03:25:19.627Z,62.66
2022-12-18T03:26:18.606Z,60.89
2022-12-18T03:27:16.640Z,55.75
2022-12-18T03:28:13.603Z,56.03
2022-12-18T03:29:15.610Z,58.47
2022-12-18T03:30:23.592Z,59.11
2022-12-18T03:31:19.630Z,59.94
2022-12-18T03:32:20.636Z,62.15
2022-12-18T03:33:26.608Z,59.70
2022-12-18T03:34:27.609Z,56.53
2022-12-18T03:35:22.594Z,58.94
2022-12-18T03:36:16.584Z,60.06
2022-12-18T03:37:10.590Z,61.20
2022-12-18T03:37:50.653Z,60.72
2022-12-18T03:38:30.648Z,59.85
2022-12-18T03:39:10.593Z,59.76
2022-12-18T03:39:50.639Z,57.96
2022-12-18T03:40:50.614Z,55.90
2022-12-18T03:42:26.627Z,57.11
2022-12-18T03:43:41.958Z,60.91
2022-12-18T03:45:32.615Z,61.25
2022-12-18T03:46:42.590Z,59.90
2022-12-18T03:48:04.592Z,59.16
2022-12-18T03:49:02.604Z,59.19
2022-12-18T03:50:12.493Z,61.00
2022-12-18T03:51:14.594Z,62.09
2022-12-18T03:52:25.594Z,64.16
2022-12-18T03:53:52.591Z,64.55
2022-12-18T03:54:32.587Z,67.11
2022-12-18T03:55:14.657Z,64.84
2022-12-18T03:55:55.567Z,63.41
2022-12-18T03:56:39.605Z,62.79
2022-12-18T03:57:25.578Z,65.18
2022-12-18T03:58:07.631Z,66.50
2022-12-18T03:58:48.577Z,65.40
2022-12-18T03:59:29.730Z,65.34
2022-12-18T04:00:19.642Z,64.78
2022-12-18T04:01:04.620Z,66.19
2022-12-18T04:01:52.656Z,66.93
2022-12-18T04:02:32.766Z,65.97
2022-12-18T04:03:13.598Z,64.36
2022-12-18T04:03:55.686Z,63.58
2022-12-18T04:04:36.578Z,59.71
2022-12-18T04:05:17.629Z,61.56
2022-12-18T04:05:59.587Z,60.59
2022-12-18T04:06:39.633Z,63.20
2022-12-18T04:07:21.556Z,62.30
2022-12-18T04:08:02.612Z,60.10
2022-12-18T04:08:43.557Z,59.80
2022-12-18T04:09:23.584Z,57.96
2022-12-18T04:10:06.578Z,58.58
2022-12-18T04:10:46.631Z,59.41
2022-12-18T04:11:26.602Z,59.56
2022-12-18T04:12:06.948Z,60.22
2022-12-18T04:12:46.547Z,59.81
2022-12-18T04:13:36.878Z,60.40
2022-12-18T04:14:18.721Z,61.39
2022-12-18T04:14:59.631Z,60.29
2022-12-18T04:15:42.608Z,63.45
2022-12-18T04:16:22.583Z,63.59
2022-12-18T04:17:02.581Z,64.00
2022-12-18T04:17:42.591Z,64.41
2022-12-18T04:18:22.598Z,65.96
2022-12-18T04:19:02.600Z,61.56
2022-12-18T04:19:43.546Z,59.75
2022-12-18T04:20:24.571Z,61.03
2022-12-18T04:21:04.534Z,62.85
2022-12-18T04:21:44.566Z,63.15
2022-12-18T04:22:25.539Z,63.84
2022-12-18T04:23:05.638Z,64.32
2022-12-18T04:23:45.549Z,62.33
2022-12-18T04:24:25.638Z,63.19
2022-12-18T04:25:05.542Z,61.44
2022-12-18T04:25:45.627Z,61.74
2022-12-18T04:26:25.536Z,63.92
2022-12-18T04:27:05.585Z,63.90
2022-12-18T04:27:46.556Z,64.56
2022-12-18T04:28:26.576Z,64.06
2022-12-18T04:29:07.513Z,66.07
2022-12-18T04:29:47.600Z,66.80
2022-12-18T04:30:27.549Z,65.64
2022-12-18T04:31:07.656Z,65.21
2022-12-18T04:31:47.525Z,65.52
2022-12-18T04:32:27.624Z,66.21
2022-12-18T04:33:07.544Z,65.44
2022-12-18T04:33:47.588Z,65.47
2022-12-18T04:34:28.520Z,67.20
2022-12-18T04:35:11.422Z,67.15
2022-12-18T04:35:51.512Z,64.75
2022-12-18T04:36:45.548Z,65.86
2022-12-18T04:37:39.522Z,65.04
2022-12-18T04:38:26.560Z,65.04
2022-12-18T04:39:00.595Z,64.39
2022-12-18T04:39:47.548Z,65.01
2022-12-18T04:40:21.554Z,64.99
2022-12-18T04:41:08.519Z,66.30
2022-12-18T04:41:42.567Z,67.05
2022-12-18T04:42:29.513Z,64.99
2022-12-18T04:43:03.651Z,68.53
2022-12-18T04:43:50.539Z,71.24
2022-12-18T04:44:24.567Z,72.03
2022-12-18T04:45:12.515Z,70.30
2022-12-18T04:45:46.551Z,69.97
2022-12-18T04:46:34.578Z,70.00
2022-12-18T04:47:08.655Z,69.91
2022-12-18T04:47:55.508Z,71.56
2022-12-18T04:48:29.547Z,72.37
2022-12-18T04:49:09.540Z,73.10
2022-12-18T04:49:49.571Z,73.15
2022-12-18T04:50:29.525Z,75.31
2022-12-18T04:51:10.623Z,72.94
2022-12-18T04:51:50.531Z,71.45
2022-12-18T04:52:33.332Z,72.36
2022-12-18T04:53:13.529Z,73.93
2022-12-18T04:53:53.568Z,73.05
2022-12-18T04:54:33.515Z,75.99
2022-12-18T04:55:14.537Z,72.60
2022-12-18T04:55:54.507Z,72.31
2022-12-18T04:56:34.543Z,71.69
2022-12-18T04:57:15.502Z,72.45
2022-12-18T04:57:55.617Z,69.56
2022-12-18T04:58:35.517Z,69.01
2022-12-18T04:59:15.540Z,68.79
2022-12-18T04:59:55.516Z,69.20
2022-12-18T05:00:35.536Z,72.07
2022-12-18T05:01:16.594Z,73.85
2022-12-18T05:01:57.623Z,72.21
2022-12-18T05:02:37.636Z,68.03
2022-12-18T05:03:17.622Z,68.09
2022-12-18T05:03:59.540Z,66.34
2022-12-18T05:04:39.556Z,68.72
2022-12-18T05:05:19.555Z,71.60
2022-12-18T05:05:59.536Z,73.59
2022-12-18T05:06:40.500Z,74.03
2022-12-18T05:07:20.523Z,72.55
2022-12-18T05:08:00.495Z,71.65
2022-12-18T05:08:40.569Z,70.09
2022-12-18T05:09:21.495Z,71.63
2022-12-18T05:10:01.528Z,77.44
2022-12-18T05:10:41.508Z,75.59
2022-12-18T05:11:22.528Z,74.90
2022-12-18T05:12:02.494Z,74.51
2022-12-18T05:12:58.947Z,74.63
2022-12-18T05:13:41.699Z,74.47
2022-12-18T05:14:22.510Z,76.41
2022-12-18T05:15:02.463Z,78.74
2022-12-18T05:15:49.575Z,78.70
2022-12-18T05:16:43.487Z,77.36
2022-12-18T05:17:38.479Z,76.75
2022-12-18T05:18:32.483Z,76.43
2022-12-18T05:19:26.487Z,77.79
2022-12-18T05:20:21.469Z,80.54
2022-12-18T05:21:08.497Z,79.34
2022-12-18T05:21:42.525Z,77.79
2022-12-18T05:22:29.492Z,78.28
2022-12-18T05:23:03.535Z,75.46
2022-12-18T05:23:50.476Z,76.80
2022-12-18T05:24:24.504Z,76.54
2022-12-18T05:25:12.461Z,76.47
2022-12-18T05:25:46.529Z,79.35
2022-12-18T05:26:33.511Z,78.70
2022-12-18T05:27:07.506Z,78.26
2022-12-18T05:27:55.448Z,77.96
2022-12-18T05:28:30.523Z,79.28
2022-12-18T05:29:19.472Z,82.75
2022-12-18T05:29:53.500Z,82.35
2022-12-18T05:30:40.482Z,81.46
2022-12-18T05:31:14.553Z,78.85
2022-12-18T05:31:54.568Z,77.79
2022-12-18T05:32:34.537Z,73.89
2022-12-18T05:33:14.450Z,75.14
2022-12-18T05:33:55.001Z,74.93
2022-12-18T05:34:35.455Z,72.46
2022-12-18T05:35:17.529Z,75.88
2022-12-18T05:36:02.464Z,74.31
2022-12-18T05:36:42.524Z,72.46
2022-12-18T05:37:23.489Z,70.46
2022-12-18T05:38:03.602Z,70.15
2022-12-18T05:38:46.453Z,71.40
2022-12-18T05:39:26.528Z,71.47
2022-12-18T05:40:06.442Z,69.57
2022-12-18T05:40:50.637Z,67.40
2022-12-18T05:41:30.472Z,67.70
2022-12-18T05:42:10.755Z,69.89
2022-12-18T05:42:51.467Z,69.86
2022-12-18T05:43:33.508Z,67.39
2022-12-18T05:44:13.455Z,65.90
2022-12-18T05:44:53.498Z,67.91
2022-12-18T05:45:34.474Z,70.64
2022-12-18T05:46:19.649Z,68.57
2022-12-18T05:46:59.485Z,67.75
2022-12-18T05:47:40.491Z,64.44
2022-12-18T05:48:20.466Z,66.50
2022-12-18T05:49:00.511Z,66.50
2022-12-18T05:49:40.446Z,64.35
2022-12-18T05:50:20.527Z,66.41
2022-12-18T05:51:01.448Z,66.49
2022-12-18T05:51:41.576Z,66.20
2022-12-18T05:52:23.448Z,66.72
2022-12-18T05:53:03.462Z,70.18
2022-12-18T05:53:45.462Z,71.86
2022-12-18T05:54:25.555Z,71.70
2022-12-18T05:55:06.448Z,72.60
2022-12-18T05:55:48.497Z,71.73
2022-12-18T05:56:30.460Z,71.15
2022-12-18T05:57:11.488Z,70.03
2022-12-18T05:57:51.425Z,69.72
2022-12-18T05:58:31.517Z,70.38
2022-12-18T05:59:11.437Z,72.35
2022-12-18T05:59:51.715Z,71.49
2022-12-18T06:00:31.426Z,67.38
2022-12-18T06:01:19.547Z,70.11
2022-12-18T06:02:00.487Z,72.04
2022-12-18T06:02:40.660Z,71.79
2022-12-18T06:03:21.558Z,69.99
2022-12-18T06:04:02.539Z,68.66
2022-12-18T06:04:43.448Z,69.22
2022-12-18T06:05:23.475Z,69.90
2022-12-18T06:06:04.460Z,75.19
2022-12-18T06:06:45.636Z,73.51
2022-12-18T06:07:25.440Z,75.63
2022-12-18T06:08:05.467Z,76.39
2022-12-18T06:08:46.680Z,75.69
2022-12-18T06:09:41.435Z,72.09
2022-12-18T06:10:21.412Z,68.88
2022-12-18T06:11:02.503Z,69.34
2022-12-18T06:11:46.408Z,67.95
2022-12-18T06:12:26.528Z,65.68
2022-12-18T06:13:07.404Z,62.60
2022-12-18T06:13:47.637Z,63.38
2022-12-18T06:14:27.406Z,64.36
2022-12-18T06:15:08.443Z,66.86
2022-12-18T06:15:44.459Z,64.96
2022-12-18T06:16:31.446Z,68.85
2022-12-18T06:17:05.445Z,68.43
2022-12-18T06:17:52.415Z,69.10
2022-12-18T06:18:26.492Z,65.49
2022-12-18T06:19:13.401Z,64.57
2022-12-18T06:19:47.554Z,67.24
2022-12-18T06:20:33.221Z,68.15
2022-12-18T06:21:13.482Z,68.63
2022-12-18T06:21:54.396Z,67.15
2022-12-18T06:22:35.812Z,67.56
2022-12-18T06:23:16.413Z,66.44
2022-12-18T06:23:56.479Z,64.75
2022-12-18T06:24:37.389Z,66.07
2022-12-18T06:25:17.507Z,67.88
2022-12-18T06:25:57.400Z,66.05
2022-12-18T06:26:37.428Z,64.75
2022-12-18T06:27:18.422Z,64.59
2022-12-18T06:27:58.445Z,63.85
2022-12-18T06:28:39.399Z,64.30
2022-12-18T06:29:19.439Z,64.50
2022-12-18T06:30:00.402Z,64.38
2022-12-18T06:30:40.452Z,66.24
2022-12-18T06:31:20.429Z,67.54
2022-12-18T06:32:00.493Z,69.06
2022-12-18T06:32:40.384Z,70.89
2022-12-18T06:33:20.425Z,71.05
2022-12-18T06:34:01.495Z,72.53
2022-12-18T06:34:45.428Z,71.60
2022-12-18T06:35:25.392Z,69.59
2022-12-18T06:36:12.502Z,70.61
2022-12-18T06:36:52.414Z,64.81
2022-12-18T06:37:32.503Z,66.51
2022-12-18T06:38:13.380Z,69.41
2022-12-18T06:38:53.437Z,68.38
2022-12-18T06:39:36.387Z,69.65
2022-12-18T06:40:16.500Z,70.06
2022-12-18T06:40:56.370Z,70.93
2022-12-18T06:41:36.413Z,68.76
2022-12-18T06:42:17.411Z,69.00
2022-12-18T06:42:57.399Z,68.50
2022-12-18T06:43:37.705Z,71.68
2022-12-18T06:44:18.432Z,69.40
2022-12-18T06:44:58.369Z,70.09
2022-12-18T06:45:38.484Z,71.11
2022-12-18T06:46:19.417Z,65.88
2022-12-18T06:46:59.427Z,64.85
2022-12-18T06:47:39.411Z,67.64
2022-12-18T06:48:19.440Z,67.51
2022-12-18T06:49:00.373Z,68.31
2022-12-18T06:49:40.406Z,67.71
2022-12-18T06:50:21.372Z,68.78
2022-12-18T06:51:01.399Z,66.44
2022-12-18T06:51:42.373Z,68.38
2022-12-18T06:52:23.399Z,70.43
2022-12-18T06:53:03.396Z,70.60
2022-12-18T06:53:44.421Z,70.61
2022-12-18T06:54:24.374Z,73.46
2022-12-18T06:55:05.432Z,75.61
2022-12-18T06:55:45.360Z,73.21
2022-12-18T06:56:25.414Z,69.36
2022-12-18T06:57:05.338Z,71.78
2022-12-18T06:57:45.400Z,70.74
2022-12-18T06:58:25.382Z,70.16
2022-12-18T06:59:05.401Z,68.68
2022-12-18T06:59:45.368Z,70.35
2022-12-18T07:00:25.422Z,70.22
2022-12-18T07:01:16.484Z,65.04
2022-12-18T07:01:56.570Z,65.93
2022-12-18T07:02:36.480Z,69.38
2022-12-18T07:03:16.412Z,69.39
2022-12-18T07:04:02.411Z,68.86
2022-12-18T07:04:43.407Z,70.14
2022-12-18T07:05:23.328Z,74.36
2022-12-18T07:06:03.431Z,77.88
2022-12-18T07:06:43.368Z,79.03
2022-12-18T07:07:37.351Z,72.13
2022-12-18T07:08:31.345Z,73.97
2022-12-18T07:09:18.385Z,84.57
2022-12-18T07:09:52.379Z,99.44
2022-12-18T07:10:43.247Z,102.44
2022-12-18T07:11:20.374Z,93.57
2022-12-18T07:12:07.341Z,79.16
2022-12-18T07:12:42.049Z,74.24
2022-12-18T07:13:30.375Z,71.57
2022-12-18T07:14:07.415Z,79.81
2022-12-18T07:14:47.410Z,93.69
2022-12-18T07:15:27.399Z,102.05
2022-12-18T07:16:24.815Z,97.84
2022-12-18T07:17:05.520Z,84.47
2022-12-18T07:17:46.323Z,72.00
2022-12-18T07:18:26.375Z,71.14
2022-12-18T07:19:06.348Z,70.71
2022-12-18T07:19:46.387Z,66.74
2022-12-18T07:20:26.352Z,70.14
2022-12-18T07:21:11.423Z,67.96
2022-12-18T07:21:51.333Z,66.51
2022-12-18T07:22:33.384Z,64.55
2022-12-18T07:23:13.341Z,66.20
2022-12-18T07:23:53.350Z,68.24
2022-12-18T07:24:33.307Z,68.43
2022-12-18T07:25:14.359Z,69.39
2022-12-18T07:25:54.354Z,70.60
2022-12-18T07:26:34.397Z,71.94
2022-12-18T07:27:15.338Z,72.41
2022-12-18T07:27:55.379Z,71.82
2022-12-18T07:28:35.328Z,70.54
2022-12-18T07:29:15.372Z,69.95
2022-12-18T07:29:55.316Z,71.80
2022-12-18T07:30:35.368Z,73.30
2022-12-18T07:31:25.461Z,73.69
2022-12-18T07:32:06.513Z,70.99
2022-12-18T07:32:46.338Z,71.93
2022-12-18T07:33:26.720Z,72.71
2022-12-18T07:34:07.325Z,71.50
2022-12-18T07:34:47.373Z,70.93
2022-12-18T07:35:27.304Z,73.28
2022-12-18T07:36:11.508Z,75.54
2022-12-18T07:36:52.334Z,75.53
2022-12-18T07:37:32.367Z,74.05
2022-12-18T07:38:12.296Z,74.40
2022-12-18T07:38:55.652Z,76.60
2022-12-18T07:39:35.318Z,78.05
2022-12-18T07:40:16.374Z,80.29
2022-12-18T07:40:56.311Z,76.09
2022-12-18T07:41:36.351Z,77.40
2022-12-18T07:42:35.322Z,75.57
2022-12-18T07:43:15.398Z,72.66
2022-12-18T07:43:56.286Z,74.59
2022-12-18T07:44:36.383Z,69.82
2022-12-18T07:45:17.322Z,71.78
2022-12-18T07:45:57.391Z,70.14
2022-12-18T07:46:37.325Z,71.07
2022-12-18T07:47:17.427Z,71.34
2022-12-18T07:47:57.326Z,69.22
2022-12-18T07:48:37.358Z,70.81
2022-12-18T07:49:17.309Z,71.00
2022-12-18T07:49:57.447Z,67.96
2022-12-18T07:50:38.287Z,69.14
2022-12-18T07:51:18.529Z,72.68
2022-12-18T07:51:58.298Z,73.96
2022-12-18T07:52:38.361Z,74.40
2022-12-18T07:53:18.329Z,73.00
2022-12-18T07:53:58.348Z,69.24
2022-12-18T07:54:38.295Z,69.39
2022-12-18T07:55:18.425Z,67.50
2022-12-18T07:57:07.457Z,72.99
2022-12-18T07:57:57.609Z,71.76
2022-12-18T07:58:40.325Z,69.47
2022-12-18T07:59:14.379Z,71.69
2022-12-18T08:00:01.295Z,71.75
2022-12-18T08:00:35.327Z,73.25
2022-12-18T08:01:22.403Z,78.59
2022-12-18T08:01:56.494Z,82.31
2022-12-18T08:02:43.355Z,84.15
2022-12-18T08:03:17.369Z,79.50
2022-12-18T08:04:06.289Z,75.01
2022-12-18T08:04:40.331Z,72.95
2022-12-18T08:05:28.303Z,71.13
2022-12-18T08:06:10.352Z,69.29
2022-12-18T08:06:57.280Z,72.74
2022-12-18T08:07:31.332Z,73.97
2022-12-18T08:08:19.276Z,73.65
2022-12-18T08:08:53.484Z,71.96
2022-12-18T08:09:34.282Z,70.75
2022-12-18T08:10:15.372Z,72.25
2022-12-18T08:10:55.313Z,69.74
2022-12-18T08:11:36.369Z,69.18
2022-12-18T08:12:16.277Z,70.93
2022-12-18T08:13:04.578Z,72.11
2022-12-18T08:13:46.295Z,72.22
2022-12-18T08:14:26.328Z,70.40
2022-12-18T08:15:06.344Z,69.91
2022-12-18T08:15:46.327Z,71.35
2022-12-18T08:16:28.343Z,71.55
2022-12-18T08:17:08.304Z,72.65
2022-12-18T08:17:48.270Z,72.82
2022-12-18T08:18:28.374Z,70.99
2022-12-18T08:19:08.266Z,70.36
2022-12-18T08:19:48.328Z,71.79
2022-12-18T08:20:28.284Z,72.28
2022-12-18T08:21:19.038Z,69.63
2022-12-18T08:22:00.264Z,72.76
2022-12-18T08:22:42.292Z,72.79
2022-12-18T08:23:22.249Z,72.74
2022-12-18T08:24:05.355Z,72.51
2022-12-18T08:24:45.267Z,72.45
2022-12-18T08:25:25.306Z,71.01
2022-12-18T08:26:06.269Z,70.38
2022-12-18T08:27:06.815Z,70.18
2022-12-18T08:27:47.251Z,69.93
2022-12-18T08:28:27.307Z,64.74
2022-12-18T08:29:08.250Z,57.03
2022-12-18T08:29:48.288Z,53.89
2022-12-18T08:30:29.360Z,53.85
2022-12-18T08:31:16.336Z,54.69
2022-12-18T08:32:10.346Z,54.06
2022-12-18T08:33:06.259Z,54.71
2022-12-18T08:34:06.267Z,56.91
2022-12-18T08:35:00.249Z,59.60
2022-12-18T08:35:54.235Z,60.09
2022-12-18T08:36:41.261Z,60.35
2022-12-18T08:37:15.336Z,57.46
2022-12-18T08:38:02.334Z,53.38
2022-12-18T08:38:36.667Z,55.29
2022-12-18T08:39:23.316Z,56.95
2022-12-18T08:39:57.330Z,57.75
2022-12-18T08:40:44.235Z,55.99
2022-12-18T08:41:23.370Z,54.55
2022-12-18T08:42:22.263Z,56.04
2022-12-18T08:43:20.658Z,58.76
2022-12-18T08:44:19.264Z,57.54
2022-12-18T08:44:59.514Z,60.08
2022-12-18T08:45:42.272Z,60.60
2022-12-18T08:46:22.359Z,61.61
2022-12-18T08:47:02.233Z,62.83
2022-12-18T08:47:42.234Z,61.00
2022-12-18T08:48:21.850Z,61.29
2022-12-18T08:49:09.234Z,64.21
2022-12-18T08:49:43.256Z,63.61
2022-12-18T08:50:30.239Z,63.16
2022-12-18T08:51:05.357Z,63.06
2022-12-18T08:51:52.236Z,59.83
2022-12-18T08:52:26.365Z,56.53
2022-12-18T08:53:07.298Z,55.61
2022-12-18T08:53:47.247Z,52.20
2022-12-18T08:54:28.218Z,51.76
2022-12-18T08:55:08.247Z,51.29
2022-12-18T08:55:50.496Z,48.59
2022-12-18T08:56:31.271Z,50.14
2022-12-18T08:57:11.223Z,50.22
2022-12-18T08:57:55.285Z,49.71
2022-12-18T08:58:35.257Z,51.13
2022-12-18T08:59:19.749Z,54.24
2022-12-18T09:00:00.233Z,60.69
2022-12-18T09:00:40.299Z,71.46
2022-12-18T09:01:21.294Z,68.16
2022-12-18T09:02:02.420Z,67.19
2022-12-18T09:02:42.284Z,63.81
2022-12-18T09:03:25.302Z,62.65
2022-12-18T09:04:05.242Z,63.36
2022-12-18T09:04:52.409Z,61.06
2022-12-18T09:05:36.207Z,60.65
2022-12-18T09:06:16.714Z,57.94
2022-12-18T09:06:57.217Z,57.88
2022-12-18T09:07:37.427Z,61.08
2022-12-18T09:08:17.193Z,62.25
2022-12-18T09:08:57.263Z,62.58
2022-12-18T09:09:37.248Z,61.36
2022-12-18T09:10:17.325Z,61.81
2022-12-18T09:10:58.206Z,61.03
2022-12-18T09:11:39.285Z,59.11
2022-12-18T09:12:20.217Z,59.67
2022-12-18T09:13:00.279Z,58.01
2022-12-18T09:13:40.532Z,57.44
2022-12-18T09:14:21.258Z,57.80
2022-12-18T09:15:01.211Z,59.71
2022-12-18T09:15:41.213Z,60.08
2022-12-18T09:16:21.221Z,62.28
2022-12-18T09:17:01.321Z,65.05
2022-12-18T09:17:41.208Z,64.51
2022-12-18T09:18:23.290Z,66.09
2022-12-18T09:19:07.206Z,67.63
2022-12-18T09:19:47.292Z,65.86
2022-12-18T09:20:27.243Z,60.69
2022-12-18T09:21:07.275Z,60.69
2022-12-18T09:21:48.654Z,61.54
2022-12-18T09:22:29.270Z,63.31
2022-12-18T09:23:10.215Z,62.46
2022-12-18T09:23:51.252Z,60.44
2022-12-18T09:24:31.202Z,59.65
2022-12-18T09:25:12.327Z,61.65
2022-12-18T09:25:53.217Z,64.41
2022-12-18T09:26:34.253Z,64.34
2022-12-18T09:27:14.181Z,64.10
2022-12-18T09:27:55.239Z,64.56
2022-12-18T09:28:36.177Z,63.34
2022-12-18T09:29:16.379Z,64.22
2022-12-18T09:29:59.199Z,64.91
2022-12-18T09:30:39.303Z,67.21
2022-12-18T09:31:21.236Z,71.55
2022-12-18T09:32:01.274Z,76.39
2022-12-18T09:32:42.187Z,79.65
2022-12-18T09:33:23.288Z,80.34
2022-12-18T09:34:04.185Z,79.78
2022-12-18T09:34:45.216Z,82.55